Sand Lake, Minnesota
Current Conditions -  °F | °C
As of 12:53 AM on Thursday 27 Nov 2014 (Local Time) from KFOZ Reporting Station
Clear Clear  
Wind Chill: -9°   Ceiling: Unl
Heat Index: -9°   Visibility: 10mi
Dew Point: -15°   Wind: 0mph
Humidity: 77%   Direction: NA
Pressure: 30.43"   Gusts: NA
Location:  47.5934°N, 93.8397°W
Report Text: KFOZ 270653Z AUTO 00000KT 10SM CLR M23/M26 A3043 RMK AO2
Loading
Personal Weather Stations






























Interactive Weather Map New forecast layout! Learn more

10-Day Weather Forecast

Advertisements
Track Severe Weather on mobile